Time;durP1;ratioP1;P1;durP2;ratioP2;P2;SDS_P1;SDS_P2;PMS_P1;PMS_P2;Temp;Humidity;BMP_temperature;BMP_pressure;BME280_temperature;BME280_humidity;BME280_pressure;Samples;Min_cycle;Max_cycle;Signal;HPM_P1;HPM_P2
2023/08/12 00:01:01;;;;;;;11.32;3.20;;;19.70;99.90;;;;;;5046004;28;20594;-80
2023/08/12 00:03:27;;;;;;;10.27;3.45;;;19.70;99.90;;;;;;5043604;28;20066;-80
2023/08/12 00:05:53;;;;;;;9.85;3.42;;;19.70;99.90;;;;;;5061755;28;20035;-80
2023/08/12 00:08:19;;;;;;;9.13;3.30;;;19.60;99.90;;;;;;5060539;28;20588;-80
2023/08/12 00:10:45;;;;;;;8.25;2.78;;;19.60;99.90;;;;;;5045820;28;20052;-79
2023/08/12 00:13:13;;;;;;;8.65;2.80;;;19.70;99.90;;;;;;5030039;28;20052;-79
2023/08/12 00:15:40;;;;;;;8.80;3.00;;;19.60;99.90;;;;;;5044143;28;20112;-80
2023/08/12 00:18:06;;;;;;;7.93;2.58;;;19.60;99.90;;;;;;5044914;28;20072;-80
2023/08/12 00:20:32;;;;;;;8.52;3.10;;;19.60;99.90;;;;;;5044268;28;20044;-80
2023/08/12 00:22:58;;;;;;;9.35;3.30;;;19.60;99.90;;;;;;5045866;28;20040;-79
2023/08/12 00:25:24;;;;;;;9.95;2.92;;;19.60;99.90;;;;;;5063080;28;20120;-80
2023/08/12 00:27:49;;;;;;;10.23;3.10;;;19.60;99.90;;;;;;5042828;28;20138;-80
2023/08/12 00:30:15;;;;;;;10.48;3.92;;;19.50;99.90;;;;;;5042601;28;20137;-80
2023/08/12 00:32:41;;;;;;;9.82;3.13;;;19.60;99.90;;;;;;5063655;28;20051;-79
2023/08/12 00:35:07;;;;;;;8.75;2.80;;;19.50;99.90;;;;;;5062176;28;20041;-80
2023/08/12 00:37:33;;;;;;;8.27;2.80;;;19.50;99.90;;;;;;5036403;28;20128;-80
2023/08/12 00:39:58;;;;;;;11.00;3.60;;;19.50;99.90;;;;;;5061796;28;20121;-80
2023/08/12 00:42:24;;;;;;;9.40;3.45;;;19.40;99.90;;;;;;5059570;28;20040;-80
2023/08/12 00:44:50;;;;;;;10.43;3.40;;;19.40;99.90;;;;;;5029446;28;20052;-80
2023/08/12 00:47:16;;;;;;;10.45;3.30;;;19.40;99.90;;;;;;5062222;28;20056;-79
2023/08/12 00:49:45;;;;;;;9.70;3.60;;;19.40;99.90;;;;;;5041942;28;20053;-79
2023/08/12 00:52:12;;;;;;;9.77;3.63;;;19.40;99.90;;;;;;5061274;28;20044;-80
2023/08/12 00:54:38;;;;;;;9.23;3.15;;;19.40;99.90;;;;;;5063635;28;20425;-80
2023/08/12 00:57:05;;;;;;;10.95;3.78;;;19.30;99.90;;;;;;5060838;28;20037;-80
2023/08/12 00:59:33;;;;;;;8.88;2.83;;;19.30;99.90;;;;;;5059251;28;20048;-80
2023/08/12 01:01:59;;;;;;;11.93;3.55;;;19.30;99.90;;;;;;5060254;28;20041;-80
2023/08/12 01:04:24;;;;;;;8.98;3.10;;;19.30;99.90;;;;;;5043880;28;20036;-80
2023/08/12 01:06:50;;;;;;;8.77;2.90;;;19.30;99.90;;;;;;5060259;28;20121;-80
2023/08/12 01:09:16;;;;;;;7.38;2.38;;;19.30;99.90;;;;;;5043741;28;20127;-80
2023/08/12 01:11:50;;;;;;;7.55;2.85;;;19.30;99.90;;;;;;5047316;28;20547;-80
2023/08/12 01:14:28;;;;;;;9.32;2.88;;;19.30;99.90;;;;;;5065355;28;20044;-80
2023/08/12 01:17:03;;;;;;;8.98;2.95;;;19.30;99.90;;;;;;5050329;28;21763;-80
2023/08/12 01:19:38;;;;;;;8.98;2.88;;;19.30;99.90;;;;;;5066350;28;20055;-80
2023/08/12 01:22:08;;;;;;;10.18;3.17;;;19.30;99.90;;;;;;5055102;28;20396;-80
2023/08/12 01:24:44;;;;;;;8.40;3.13;;;19.30;99.90;;;;;;5065734;28;20075;-80
2023/08/12 01:27:12;;;;;;;9.13;3.00;;;19.30;99.90;;;;;;5060006;28;20041;-80
2023/08/12 01:29:45;;;;;;;8.82;2.88;;;19.30;99.90;;;;;;5064117;28;20047;-80
2023/08/12 01:32:38;;;;;;;8.88;2.97;;;19.30;99.90;;;;;;5044401;28;20397;-80
2023/08/12 01:35:17;;;;;;;8.98;2.78;;;19.30;99.90;;;;;;5064252;28;20073;-80
2023/08/12 01:37:44;;;;;;;8.27;2.70;;;19.30;99.90;;;;;;5048429;28;20044;-80
2023/08/12 01:40:13;;;;;;;9.55;2.50;;;19.20;99.90;;;;;;5064608;28;20067;-79
2023/08/12 01:42:40;;;;;;;8.20;2.47;;;19.30;99.90;;;;;;5060494;28;20508;-80
2023/08/12 01:45:07;;;;;;;7.75;2.63;;;19.30;99.90;;;;;;5046537;28;20139;-80
2023/08/12 01:47:32;;;;;;;7.70;2.50;;;19.30;99.90;;;;;;5029789;28;20032;-79
2023/08/12 01:49:58;;;;;;;8.13;2.70;;;19.20;99.90;;;;;;5042583;28;20104;-79
2023/08/12 01:52:24;;;;;;;7.72;2.58;;;19.20;99.90;;;;;;5060608;28;20518;-80
2023/08/12 01:54:50;;;;;;;8.60;2.75;;;19.20;99.90;;;;;;5063879;28;20040;-79
2023/08/12 01:57:16;;;;;;;7.22;2.40;;;19.20;99.90;;;;;;5029397;28;20462;-79
2023/08/12 01:59:43;;;;;;;8.95;2.47;;;19.20;99.90;;;;;;5045323;28;20036;-79
2023/08/12 02:02:09;;;;;;;7.25;2.53;;;19.10;99.90;;;;;;5013110;28;20041;-79
2023/08/12 02:04:37;;;;;;;8.15;2.80;;;19.10;99.90;;;;;;5063569;28;20039;-79
2023/08/12 02:07:03;;;;;;;9.75;3.10;;;19.10;99.90;;;;;;5030005;28;20205;-80
2023/08/12 02:09:30;;;;;;;8.20;2.80;;;19.10;99.90;;;;;;5063155;28;20114;-79
2023/08/12 02:11:56;;;;;;;8.50;2.95;;;19.00;99.90;;;;;;5046203;28;20062;-80
2023/08/12 02:14:22;;;;;;;9.52;3.55;;;19.00;99.90;;;;;;5044484;28;20831;-80
2023/08/12 02:16:48;;;;;;;10.57;3.10;;;19.00;99.90;;;;;;5028818;28;20085;-80
2023/08/12 02:19:13;;;;;;;10.68;3.13;;;19.00;99.90;;;;;;5042167;28;20490;-80
2023/08/12 02:21:39;;;;;;;10.15;3.13;;;18.90;99.90;;;;;;5043931;28;20041;-80
2023/08/12 02:24:05;;;;;;;8.65;3.17;;;18.90;99.90;;;;;;5060899;28;20064;-80
2023/08/12 02:26:31;;;;;;;8.60;3.20;;;18.90;99.90;;;;;;5064076;28;20021;-80
2023/08/12 02:28:57;;;;;;;8.73;3.45;;;18.90;99.90;;;;;;5026788;28;20101;-80
2023/08/12 02:31:23;;;;;;;8.63;3.25;;;18.90;99.90;;;;;;5062751;28;20055;-80
2023/08/12 02:33:49;;;;;;;10.15;4.05;;;18.90;99.90;;;;;;5064152;28;20048;-80
2023/08/12 02:36:15;;;;;;;9.35;3.20;;;18.90;99.90;;;;;;5043950;28;20404;-80
2023/08/12 02:38:41;;;;;;;8.52;3.33;;;18.80;99.90;;;;;;5061791;28;20041;-80
2023/08/12 02:41:07;;;;;;;9.75;3.58;;;18.90;99.90;;;;;;5063431;28;20494;-80
2023/08/12 02:43:33;;;;;;;9.13;3.65;;;18.80;99.90;;;;;;5015223;28;20047;-80
2023/08/12 02:45:58;;;;;;;9.52;3.88;;;18.80;99.90;;;;;;5034444;28;20040;-80
2023/08/12 02:48:24;;;;;;;9.77;3.35;;;18.90;99.90;;;;;;5031834;28;20036;-80
2023/08/12 02:50:50;;;;;;;8.27;3.50;;;18.80;99.90;;;;;;5050232;28;20032;-79
2023/08/12 02:53:16;;;;;;;12.50;3.55;;;18.80;99.90;;;;;;5067507;28;20044;-80
2023/08/12 02:55:41;;;;;;;11.38;3.72;;;18.80;99.90;;;;;;5064521;28;20069;-80
2023/08/12 02:58:07;;;;;;;10.07;3.42;;;18.80;99.90;;;;;;5047644;28;20595;-80
2023/08/12 03:00:33;;;;;;;9.57;3.80;;;18.80;99.90;;;;;;5049537;28;20066;-80
2023/08/12 03:02:59;;;;;;;9.13;3.70;;;18.80;99.90;;;;;;5067638;28;20085;-80
2023/08/12 03:05:24;;;;;;;10.85;3.95;;;18.90;99.90;;;;;;5066026;28;20062;-79
2023/08/12 03:07:51;;;;;;;9.90;4.07;;;18.90;99.90;;;;;;5063888;28;20028;-79
2023/08/12 03:10:17;;;;;;;9.95;3.80;;;18.90;99.90;;;;;;5041525;28;20102;-79
2023/08/12 03:12:43;;;;;;;10.15;3.90;;;18.90;99.90;;;;;;5035940;28;20032;-80
2023/08/12 03:15:10;;;;;;;8.55;3.60;;;18.90;99.90;;;;;;5048348;28;20067;-79
2023/08/12 03:17:38;;;;;;;10.45;3.97;;;18.90;99.90;;;;;;5066912;28;20036;-80
2023/08/12 03:20:06;;;;;;;9.70;3.70;;;18.90;99.90;;;;;;5066467;28;20052;-79
2023/08/12 03:22:31;;;;;;;11.30;3.72;;;18.80;99.90;;;;;;5065469;28;20062;-80
2023/08/12 03:24:57;;;;;;;10.52;4.00;;;18.80;99.90;;;;;;5002772;28;20521;-79
2023/08/12 03:27:23;;;;;;;9.93;3.92;;;18.80;99.90;;;;;;5066381;28;20072;-80
2023/08/12 03:29:48;;;;;;;10.80;3.97;;;18.80;99.90;;;;;;5048779;28;20028;-79
2023/08/12 03:32:14;;;;;;;10.60;4.40;;;18.80;99.90;;;;;;5048776;28;20047;-79
2023/08/12 03:34:40;;;;;;;12.50;4.70;;;18.80;99.90;;;;;;5034263;28;20064;-79
2023/08/12 03:37:05;;;;;;;10.13;4.00;;;18.80;99.90;;;;;;5049452;28;20070;-79
2023/08/12 03:39:31;;;;;;;9.80;4.28;;;18.80;99.90;;;;;;5029541;28;20032;-79
2023/08/12 03:41:57;;;;;;;10.85;4.55;;;18.80;99.90;;;;;;5065717;28;20070;-80
2023/08/12 03:44:22;;;;;;;12.27;4.75;;;18.80;99.90;;;;;;5049601;28;20052;-79
2023/08/12 03:46:48;;;;;;;9.90;4.07;;;18.70;99.90;;;;;;5031591;28;20054;-79
2023/08/12 03:49:14;;;;;;;10.70;4.82;;;18.70;99.90;;;;;;5050089;28;20409;-80
2023/08/12 03:51:39;;;;;;;10.82;4.50;;;18.70;99.90;;;;;;5065878;28;20039;-80
2023/08/12 03:54:05;;;;;;;10.38;4.70;;;18.70;99.90;;;;;;5064452;28;20047;-80
2023/08/12 03:56:31;;;;;;;11.73;5.10;;;18.70;99.90;;;;;;5047412;28;20040;-80
2023/08/12 03:58:57;;;;;;;10.13;4.53;;;18.70;99.90;;;;;;5046229;28;20108;-80
2023/08/12 04:01:22;;;;;;;12.75;5.20;;;18.70;99.90;;;;;;5064324;28;20412;-80
2023/08/12 04:03:49;;;;;;;10.15;4.65;;;18.70;99.90;;;;;;5062989;28;20120;-80
2023/08/12 04:06:15;;;;;;;10.18;4.75;;;18.70;99.90;;;;;;5063058;28;20032;-79
2023/08/12 04:08:41;;;;;;;15.98;5.18;;;18.70;99.90;;;;;;5066348;28;20039;-80
2023/08/12 04:11:07;;;;;;;11.40;4.93;;;18.70;99.90;;;;;;5065741;28;20089;-80
2023/08/12 04:13:32;;;;;;;11.52;4.95;;;18.70;99.90;;;;;;5049357;28;20048;-79
2023/08/12 04:15:58;;;;;;;10.75;4.43;;;18.70;99.90;;;;;;5063985;28;20513;-80
2023/08/12 04:18:24;;;;;;;10.40;4.97;;;18.80;99.90;;;;;;5048545;28;20032;-80
2023/08/12 04:20:50;;;;;;;11.70;5.15;;;18.70;99.90;;;;;;5064164;28;20051;-80
2023/08/12 04:23:17;;;;;;;14.15;5.90;;;18.70;99.90;;;;;;5031930;28;20044;-81
2023/08/12 04:25:49;;;;;;;12.13;5.13;;;18.80;99.90;;;;;;5063491;28;20032;-79
2023/08/12 04:28:15;;;;;;;12.88;5.43;;;18.80;99.90;;;;;;5044079;28;20404;-79
2023/08/12 04:30:50;;;;;;;12.98;5.90;;;18.80;99.90;;;;;;5048891;28;20123;-79
2023/08/12 04:33:16;;;;;;;12.38;5.72;;;18.80;99.90;;;;;;5047165;28;20040;-79
2023/08/12 04:35:42;;;;;;;15.13;6.30;;;18.80;99.90;;;;;;5063563;28;20049;-80
2023/08/12 04:38:08;;;;;;;13.43;6.07;;;18.90;99.90;;;;;;5046847;28;20040;-79
2023/08/12 04:40:38;;;;;;;13.85;5.93;;;18.80;99.90;;;;;;5064741;28;20040;-80
2023/08/12 04:43:03;;;;;;;13.10;5.97;;;18.80;99.90;;;;;;5063493;28;20097;-80
2023/08/12 04:45:29;;;;;;;14.95;6.10;;;18.80;99.90;;;;;;5050351;28;20068;-80
2023/08/12 04:47:57;;;;;;;11.95;5.90;;;18.90;99.90;;;;;;5069088;28;20067;-80
2023/08/12 04:50:22;;;;;;;15.35;6.25;;;18.90;99.90;;;;;;5066942;28;20432;-80
2023/08/12 04:52:48;;;;;;;11.10;5.75;;;18.90;99.90;;;;;;5034102;28;20044;-80
2023/08/12 04:55:14;;;;;;;11.82;5.80;;;18.90;99.90;;;;;;5067627;28;20040;-80
2023/08/12 04:57:40;;;;;;;11.70;5.93;;;18.90;99.90;;;;;;5065361;28;20401;-80
2023/08/12 05:00:09;;;;;;;12.00;5.65;;;19.00;99.90;;;;;;5066715;28;20040;-80
2023/08/12 05:02:35;;;;;;;11.48;5.47;;;19.00;99.90;;;;;;5052643;28;20040;-79
2023/08/12 05:05:01;;;;;;;12.40;6.38;;;19.00;99.90;;;;;;5086597;28;20028;-80
2023/08/12 05:07:27;;;;;;;14.13;6.18;;;19.00;99.90;;;;;;5067496;28;20032;-79
2023/08/12 05:09:52;;;;;;;12.32;5.82;;;19.00;99.90;;;;;;5053784;28;20039;-79
2023/08/12 05:12:18;;;;;;;13.57;6.20;;;19.00;99.90;;;;;;5067461;28;20055;-79
2023/08/12 05:14:44;;;;;;;10.73;5.50;;;19.00;99.90;;;;;;5052888;28;20434;-79
2023/08/12 05:17:10;;;;;;;11.55;5.70;;;19.10;99.90;;;;;;5051261;28;20143;-80
2023/08/12 05:19:35;;;;;;;10.65;5.43;;;19.10;99.90;;;;;;5068389;28;20367;-80
2023/08/12 05:22:01;;;;;;;11.93;6.00;;;19.10;99.90;;;;;;5067335;28;20067;-80
2023/08/12 05:24:27;;;;;;;12.18;5.55;;;19.10;99.90;;;;;;5067778;28;20043;-80
2023/08/12 05:26:52;;;;;;;12.40;5.85;;;19.10;99.90;;;;;;5068440;28;20040;-80
2023/08/12 05:29:18;;;;;;;12.60;5.75;;;19.10;99.90;;;;;;5067366;28;20386;-80
2023/08/12 05:31:44;;;;;;;12.63;5.38;;;19.20;99.90;;;;;;5067460;28;20043;-79
2023/08/12 05:34:09;;;;;;;10.60;5.05;;;19.20;99.90;;;;;;5045936;28;20040;-80
2023/08/12 05:36:36;;;;;;;11.63;5.63;;;19.30;99.90;;;;;;5027458;28;20531;-80
2023/08/12 05:39:03;;;;;;;10.82;5.03;;;19.40;99.90;;;;;;5066782;28;20036;-79
2023/08/12 05:41:29;;;;;;;12.75;5.90;;;19.50;99.90;;;;;;5033976;28;20493;-79
2023/08/12 05:43:54;;;;;;;11.20;5.78;;;19.60;99.90;;;;;;5067124;28;20047;-80
2023/08/12 05:46:20;;;;;;;10.52;5.40;;;19.60;99.90;;;;;;5051610;28;20055;-80
2023/08/12 05:48:46;;;;;;;11.05;5.53;;;19.70;99.90;;;;;;5065085;28;20094;-80
2023/08/12 05:51:12;;;;;;;11.23;5.25;;;19.70;99.90;;;;;;5048846;28;20032;-80
2023/08/12 05:53:38;;;;;;;13.27;5.85;;;19.80;99.90;;;;;;5031911;28;20048;-79
2023/08/12 05:56:04;;;;;;;10.35;5.32;;;19.80;99.90;;;;;;5050173;28;20164;-80
2023/08/12 05:58:29;;;;;;;10.57;5.00;;;19.80;99.90;;;;;;5066519;28;20127;-80
2023/08/12 06:00:55;;;;;;;12.63;5.47;;;19.90;99.90;;;;;;5066112;28;20078;-80
2023/08/12 06:03:21;;;;;;;12.48;5.53;;;19.90;99.90;;;;;;5066134;28;21471;-79
2023/08/12 06:05:47;;;;;;;11.43;5.63;;;19.90;99.90;;;;;;5085193;28;20081;-79
2023/08/12 06:08:13;;;;;;;13.63;5.50;;;20.00;99.90;;;;;;5050522;28;20070;-80
2023/08/12 06:10:39;;;;;;;10.63;5.50;;;20.00;99.90;;;;;;5048843;28;20043;-80
2023/08/12 06:13:05;;;;;;;10.73;5.05;;;20.10;99.90;;;;;;5044075;28;20040;-80
2023/08/12 06:15:31;;;;;;;11.93;5.75;;;20.10;99.90;;;;;;5060548;28;20407;-79
2023/08/12 06:17:57;;;;;;;11.25;5.50;;;20.20;99.90;;;;;;5061390;28;20048;-80
2023/08/12 06:20:24;;;;;;;11.13;5.18;;;20.20;99.90;;;;;;5031474;28;20028;-80
2023/08/12 06:22:51;;;;;;;12.30;5.05;;;20.20;99.90;;;;;;5065603;28;20117;-79
2023/08/12 06:25:17;;;;;;;10.88;4.78;;;20.20;99.90;;;;;;5064833;28;20053;-80
2023/08/12 06:27:43;;;;;;;10.85;5.40;;;20.30;99.90;;;;;;5063252;28;20139;-80
2023/08/12 06:30:10;;;;;;;11.50;5.13;;;20.30;99.90;;;;;;5029388;28;20111;-79
2023/08/12 06:32:36;;;;;;;12.52;5.03;;;20.30;99.90;;;;;;5044152;28;20568;-79
2023/08/12 06:35:01;;;;;;;10.52;5.30;;;20.30;99.90;;;;;;5051735;28;20145;-79
2023/08/12 06:37:27;;;;;;;10.68;5.00;;;20.30;99.90;;;;;;5065324;28;20037;-79
2023/08/12 06:39:53;;;;;;;11.07;5.68;;;20.30;99.90;;;;;;5064038;28;20040;-79
2023/08/12 06:42:18;;;;;;;10.93;5.15;;;20.30;99.90;;;;;;5048421;28;20435;-79
2023/08/12 06:44:45;;;;;;;11.18;5.18;;;20.30;99.90;;;;;;5064797;28;20036;-79
2023/08/12 06:47:11;;;;;;;10.10;5.03;;;20.30;99.90;;;;;;5043442;28;20570;-79
2023/08/12 06:49:37;;;;;;;11.00;5.72;;;20.20;99.90;;;;;;5043468;28;20096;-79
2023/08/12 06:52:03;;;;;;;11.20;5.50;;;20.30;99.90;;;;;;5040879;28;20091;-80
2023/08/12 06:54:28;;;;;;;11.60;4.90;;;20.30;99.90;;;;;;5058910;28;20298;-79
2023/08/12 06:56:54;;;;;;;10.75;4.80;;;20.30;99.90;;;;;;5043638;28;20032;-80
2023/08/12 06:59:20;;;;;;;12.52;5.32;;;20.30;99.90;;;;;;5049296;28;20024;-79
2023/08/12 07:01:45;;;;;;;11.85;5.53;;;20.40;99.90;;;;;;5059768;28;20079;-79
2023/08/12 07:04:11;;;;;;;13.18;5.70;;;20.40;99.90;;;;;;5016383;28;20116;-79
2023/08/12 07:06:37;;;;;;;12.63;5.82;;;20.40;99.90;;;;;;5050227;28;20460;-80
2023/08/12 07:09:03;;;;;;;11.98;5.40;;;20.40;99.90;;;;;;5048779;28;20043;-79
2023/08/12 07:11:28;;;;;;;11.57;5.55;;;20.50;99.90;;;;;;5065129;28;20045;-79
2023/08/12 07:13:54;;;;;;;12.60;6.32;;;20.50;99.90;;;;;;5068023;28;20066;-79
2023/08/12 07:16:20;;;;;;;12.52;6.07;;;20.50;99.90;;;;;;5029002;28;20374;-79
2023/08/12 07:18:46;;;;;;;10.55;5.38;;;20.50;99.90;;;;;;5051860;28;20489;-79
2023/08/12 07:21:11;;;;;;;12.00;5.80;;;20.50;99.90;;;;;;5068657;28;20023;-80
2023/08/12 07:23:37;;;;;;;13.80;6.47;;;20.40;99.90;;;;;;5065141;28;20262;-80
2023/08/12 07:26:03;;;;;;;13.23;6.10;;;20.40;99.90;;;;;;5062642;28;20093;-80
2023/08/12 07:28:28;;;;;;;10.95;5.47;;;20.50;99.90;;;;;;5047375;28;20037;-79
2023/08/12 07:30:54;;;;;;;13.65;6.30;;;20.50;99.90;;;;;;5070192;28;20044;-79
2023/08/12 07:33:21;;;;;;;13.48;6.53;;;20.60;99.90;;;;;;5069214;28;20036;-79
2023/08/12 07:35:47;;;;;;;13.30;5.82;;;20.60;99.90;;;;;;5068797;28;20530;-79
2023/08/12 07:38:15;;;;;;;12.77;6.20;;;20.60;99.90;;;;;;5067196;28;20035;-79
2023/08/12 07:40:41;;;;;;;14.75;6.18;;;20.70;99.90;;;;;;5023194;28;20047;-79
2023/08/12 07:43:07;;;;;;;13.82;7.07;;;20.70;99.90;;;;;;5049293;28;20064;-79
2023/08/12 07:45:33;;;;;;;14.90;7.30;;;20.70;99.90;;;;;;5090135;28;20108;-79
2023/08/12 07:47:59;;;;;;;13.60;6.25;;;20.70;99.90;;;;;;5038825;28;20048;-79
2023/08/12 07:50:24;;;;;;;13.80;6.70;;;20.70;99.90;;;;;;5068900;28;20089;-79
2023/08/12 07:52:51;;;;;;;13.27;6.07;;;20.80;99.90;;;;;;5070338;28;20044;-80
2023/08/12 07:55:18;;;;;;;14.02;6.72;;;20.80;99.90;;;;;;5070287;28;20052;-80
2023/08/12 07:57:45;;;;;;;13.73;6.80;;;20.80;99.90;;;;;;5067642;28;20039;-80
2023/08/12 08:00:12;;;;;;;14.38;6.97;;;20.90;99.90;;;;;;5087957;28;20055;-80
2023/08/12 08:02:38;;;;;;;14.32;6.90;;;20.90;99.90;;;;;;5068025;28;20032;-79
2023/08/12 08:05:05;;;;;;;13.50;6.78;;;20.90;99.90;;;;;;5032002;28;20047;-79
2023/08/12 08:07:31;;;;;;;15.70;6.97;;;21.00;99.90;;;;;;5050871;28;20043;-79
2023/08/12 08:09:57;;;;;;;18.52;7.07;;;21.00;99.90;;;;;;5048657;28;20048;-79
2023/08/12 08:12:23;;;;;;;14.02;7.30;;;21.00;99.90;;;;;;5060256;28;20100;-79
2023/08/12 08:14:49;;;;;;;15.05;8.10;;;21.00;99.90;;;;;;5062726;28;20036;-79
2023/08/12 08:17:15;;;;;;;15.95;7.35;;;21.00;99.90;;;;;;5046529;28;20036;-79
2023/08/12 08:19:40;;;;;;;16.90;7.45;;;21.10;99.90;;;;;;5083852;27;20035;-79
2023/08/12 08:22:06;;;;;;;16.27;7.28;;;21.10;99.90;;;;;;5083655;28;20047;-79
2023/08/12 08:24:32;;;;;;;14.52;7.50;;;21.10;99.90;;;;;;5079859;27;20174;-79
2023/08/12 08:26:58;;;;;;;15.20;7.22;;;21.10;99.90;;;;;;5068578;27;20123;-79
2023/08/12 08:29:24;;;;;;;16.08;7.88;;;21.10;99.90;;;;;;5082437;28;20028;-79
2023/08/12 08:31:50;;;;;;;15.30;7.32;;;21.10;99.90;;;;;;5066703;28;20131;-79
2023/08/12 08:34:16;;;;;;;17.67;8.68;;;21.10;99.90;;;;;;5068782;27;20073;-79
2023/08/12 08:36:42;;;;;;;15.70;7.72;;;21.10;99.90;;;;;;5049983;27;20066;-79
2023/08/12 08:39:08;;;;;;;16.25;8.13;;;21.20;99.90;;;;;;5081810;28;20032;-79
2023/08/12 08:41:38;;;;;;;13.90;7.30;;;21.10;99.90;;;;;;5048288;28;20024;-79
2023/08/12 08:44:08;;;;;;;15.93;8.38;;;21.10;99.90;;;;;;5082633;28;20114;-79
2023/08/12 08:46:34;;;;;;;14.80;7.90;;;21.20;99.90;;;;;;5084314;28;20070;-79
2023/08/12 08:49:02;;;;;;;13.38;7.75;;;21.20;99.90;;;;;;5050064;28;20139;-80
2023/08/12 08:51:32;;;;;;;14.80;7.90;;;21.20;99.90;;;;;;5058862;28;20091;-79
2023/08/12 08:53:58;;;;;;;16.58;8.10;;;21.20;99.90;;;;;;5067413;28;20070;-79
2023/08/12 08:56:24;;;;;;;14.35;7.85;;;21.20;99.90;;;;;;5084142;27;20028;-80
2023/08/12 08:58:50;;;;;;;14.77;8.30;;;21.20;99.90;;;;;;5083068;28;20054;-79
2023/08/12 09:01:19;;;;;;;15.27;8.45;;;21.10;99.90;;;;;;5066612;28;20074;-80
2023/08/12 09:03:46;;;;;;;14.02;8.00;;;21.20;99.90;;;;;;5064064;28;20345;-79
2023/08/12 09:06:12;;;;;;;16.98;8.93;;;21.20;99.90;;;;;;5068293;28;20166;-79
2023/08/12 09:08:41;;;;;;;15.65;8.63;;;21.10;99.90;;;;;;5079981;28;20127;-79
2023/08/12 09:11:07;;;;;;;15.38;9.30;;;21.00;99.90;;;;;;5069307;28;20101;-79
2023/08/12 09:13:33;;;;;;;15.88;8.82;;;21.00;99.90;;;;;;5066675;28;20020;-79
2023/08/12 09:15:59;;;;;;;16.13;8.88;;;21.00;99.90;;;;;;5065295;28;20038;-80
2023/08/12 09:18:26;;;;;;;15.93;8.98;;;20.90;99.90;;;;;;5084129;28;20223;-80
2023/08/12 09:20:52;;;;;;;15.32;8.63;;;20.90;99.90;;;;;;5084736;28;20035;-80
2023/08/12 09:23:19;;;;;;;14.15;8.18;;;20.90;99.90;;;;;;5064164;28;20032;-80
2023/08/12 09:25:45;;;;;;;13.63;8.43;;;20.80;99.90;;;;;;5067853;28;20039;-81
2023/08/12 09:28:12;;;;;;;17.77;8.90;;;20.80;99.90;;;;;;5049812;28;20337;-82
2023/08/12 09:30:38;;;;;;;15.90;9.32;;;20.80;99.90;;;;;;5067544;28;20096;-81
2023/08/12 09:33:10;;;;;;;17.33;9.55;;;20.90;99.90;;;;;;5035606;28;20035;-81
2023/08/12 09:35:41;;;;;;;16.92;9.23;;;20.90;99.90;;;;;;5064602;28;20161;-81
2023/08/12 09:38:11;;;;;;;15.60;8.88;;;20.90;99.90;;;;;;5073827;28;20055;-81
2023/08/12 09:40:37;;;;;;;16.33;9.45;;;20.90;99.90;;;;;;5064990;28;20048;-81
2023/08/12 09:43:03;;;;;;;14.35;8.73;;;20.90;99.90;;;;;;5077988;28;20162;-81
2023/08/12 09:45:31;;;;;;;15.65;9.48;;;20.90;99.90;;;;;;5049734;28;20044;-81
2023/08/12 09:47:57;;;;;;;14.93;9.18;;;20.80;99.90;;;;;;5063663;28;20036;-81
2023/08/12 09:50:25;;;;;;;15.10;8.68;;;20.90;99.90;;;;;;5063509;28;20089;-82
2023/08/12 09:52:52;;;;;;;16.25;9.38;;;20.90;99.90;;;;;;5068398;28;20055;-81
2023/08/12 09:55:20;;;;;;;15.25;9.25;;;20.90;99.90;;;;;;5083298;28;20214;-81
2023/08/12 09:57:52;;;;;;;15.48;8.55;;;20.90;99.90;;;;;;5078822;28;20081;-81
2023/08/12 10:00:20;;;;;;;14.50;9.10;;;20.90;99.90;;;;;;5083324;28;20095;-81
2023/08/12 10:02:48;;;;;;;14.85;8.82;;;20.90;99.90;;;;;;5064518;28;20043;-80
2023/08/12 10:05:21;;;;;;;15.27;8.18;;;20.90;99.90;;;;;;5084293;28;20085;-81
2023/08/12 10:07:48;;;;;;;12.98;7.93;;;20.90;99.90;;;;;;5103669;28;20108;-80
2023/08/12 10:10:14;;;;;;;13.55;7.70;;;20.90;99.90;;;;;;5081684;28;20024;-80
2023/08/12 10:12:41;;;;;;;13.25;7.43;;;20.80;99.90;;;;;;5082768;28;20039;-80
2023/08/12 10:15:08;;;;;;;13.27;7.65;;;20.80;99.90;;;;;;5068140;28;20051;-80
2023/08/12 10:17:34;;;;;;;13.35;7.05;;;20.80;99.90;;;;;;5047879;28;20087;-81
2023/08/12 10:20:08;;;;;;;12.95;6.97;;;20.80;99.90;;;;;;5062099;28;20032;-80
2023/08/12 10:22:35;;;;;;;14.25;6.45;;;20.90;99.90;;;;;;5081853;28;20054;-81
2023/08/12 10:25:04;;;;;;;11.32;6.70;;;20.90;99.90;;;;;;5077238;28;20111;-81
2023/08/12 10:27:30;;;;;;;11.30;6.20;;;20.90;99.90;;;;;;5053149;28;20036;-81
2023/08/12 10:29:58;;;;;;;12.05;6.40;;;20.90;99.90;;;;;;5061031;28;20020;-80
2023/08/12 10:32:31;;;;;;;10.38;5.63;;;21.00;99.90;;;;;;5067900;28;20042;-80
2023/08/12 10:34:57;;;;;;;11.63;6.05;;;21.00;99.90;;;;;;5085510;28;20077;-80
2023/08/12 10:37:25;;;;;;;10.25;5.82;;;20.90;99.90;;;;;;5052113;28;20052;-80
2023/08/12 10:39:53;;;;;;;11.20;5.70;;;20.90;99.90;;;;;;5067499;28;20032;-80
2023/08/12 10:42:44;;;;;;;11.50;6.07;;;20.90;99.90;;;;;;5081538;28;20031;-80
2023/08/12 10:45:15;;;;;;;9.82;5.00;;;20.90;99.90;;;;;;5068326;28;20119;-80
2023/08/12 10:47:48;;;;;;;9.43;4.10;;;20.90;99.90;;;;;;5085143;28;20024;-80
2023/08/12 10:50:22;;;;;;;8.77;3.70;;;20.80;99.90;;;;;;5067230;28;20063;-80
2023/08/12 10:52:52;;;;;;;9.15;3.20;;;20.80;99.90;;;;;;5063713;28;20028;-80
2023/08/12 10:55:25;;;;;;;7.60;2.90;;;20.80;99.90;;;;;;5068267;28;20032;-80
2023/08/12 10:57:57;;;;;;;7.95;3.05;;;20.80;99.90;;;;;;5084949;28;20281;-80
2023/08/12 11:00:28;;;;;;;9.25;3.53;;;20.90;99.90;;;;;;5103261;28;20032;-80
2023/08/12 11:02:56;;;;;;;8.30;3.05;;;21.00;99.90;;;;;;5090021;28;20074;-80
2023/08/12 11:05:23;;;;;;;6.82;2.45;;;21.00;99.90;;;;;;5084766;28;20289;-80
2023/08/12 11:07:55;;;;;;;7.50;2.67;;;21.00;99.90;;;;;;5084678;28;20064;-79
2023/08/12 11:10:26;;;;;;;6.57;2.50;;;20.90;99.90;;;;;;5084618;28;20035;-79
2023/08/12 11:12:52;;;;;;;7.65;2.65;;;21.00;99.90;;;;;;5087925;28;20050;-79
2023/08/12 11:15:19;;;;;;;7.95;2.80;;;21.00;99.90;;;;;;5067957;28;20219;-79
2023/08/12 11:17:46;;;;;;;6.85;2.40;;;21.00;99.90;;;;;;5117081;27;20070;-79
2023/08/12 11:20:13;;;;;;;6.25;2.47;;;21.00;99.90;;;;;;5083018;28;20027;-79
2023/08/12 11:22:42;;;;;;;6.20;2.40;;;21.00;99.90;;;;;;5103841;27;20039;-79
2023/08/12 11:25:10;;;;;;;6.97;2.90;;;20.90;99.90;;;;;;5083514;28;20077;-79
2023/08/12 11:27:44;;;;;;;6.60;2.25;;;20.90;99.90;;;;;;5118037;27;20063;-80
2023/08/12 11:30:12;;;;;;;8.30;2.55;;;20.80;99.90;;;;;;5089155;28;20099;-80
2023/08/12 11:32:39;;;;;;;8.23;2.60;;;21.00;99.90;;;;;;5082956;28;20044;-79
2023/08/12 11:35:07;;;;;;;6.13;2.40;;;20.80;99.90;;;;;;5051105;28;20038;-80
2023/08/12 11:37:34;;;;;;;7.03;2.67;;;20.80;99.90;;;;;;5067319;28;20230;-80
2023/08/12 11:40:02;;;;;;;6.88;2.53;;;20.80;99.90;;;;;;5066188;28;20035;-80
2023/08/12 11:42:28;;;;;;;7.32;2.40;;;20.80;99.90;;;;;;5065099;28;20031;-79
2023/08/12 11:44:54;;;;;;;7.53;2.50;;;20.80;99.90;;;;;;5066090;28;20357;-80
2023/08/12 11:47:20;;;;;;;6.82;2.30;;;20.90;99.90;;;;;;5066805;28;20042;-80
2023/08/12 11:49:46;;;;;;;6.32;2.10;;;20.90;99.90;;;;;;5080629;28;20048;-80
2023/08/12 11:52:12;;;;;;;6.03;2.10;;;20.90;99.90;;;;;;5065709;28;20043;-80
2023/08/12 11:54:39;;;;;;;6.65;2.38;;;20.90;99.90;;;;;;5050366;28;20167;-80
2023/08/12 11:57:05;;;;;;;7.90;2.35;;;20.90;99.90;;;;;;5100799;28;20042;-80
2023/08/12 11:59:31;;;;;;;7.43;2.45;;;20.90;99.90;;;;;;5083582;28;20047;-80
2023/08/12 12:01:56;;;;;;;6.75;2.33;;;20.90;99.90;;;;;;5062898;28;20308;-80
2023/08/12 12:04:22;;;;;;;6.40;2.17;;;20.90;99.90;;;;;;5066344;28;20092;-80
2023/08/12 12:06:48;;;;;;;5.82;2.17;;;20.90;99.90;;;;;;5077918;28;20276;-80
2023/08/12 12:09:15;;;;;;;5.50;2.13;;;20.90;99.90;;;;;;5079422;28;20036;-80
2023/08/12 12:11:42;;;;;;;6.25;2.28;;;20.80;99.90;;;;;;5066059;28;20031;-80
2023/08/12 12:14:09;;;;;;;5.10;1.70;;;20.70;99.90;;;;;;5083531;28;20036;-79
2023/08/12 12:16:40;;;;;;;2.63;1.40;;;20.70;99.90;;;;;;5083735;28;20036;-80
2023/08/12 12:19:15;;;;;;;3.25;1.40;;;20.60;99.90;;;;;;5065475;28;20036;-79
2023/08/12 12:21:41;;;;;;;3.45;1.33;;;20.50;99.90;;;;;;5082883;28;20280;-80
2023/08/12 12:24:09;;;;;;;6.50;2.08;;;20.30;99.90;;;;;;5050049;28;20301;-78
2023/08/12 12:26:35;;;;;;;5.30;1.80;;;20.20;99.90;;;;;;5083613;28;20294;-78
2023/08/12 12:29:02;;;;;;;4.78;1.58;;;20.00;99.90;;;;;;5104568;27;20043;-78
2023/08/12 12:31:28;;;;;;;4.22;1.58;;;19.90;99.90;;;;;;5077342;28;20051;-78
2023/08/12 12:33:53;;;;;;;4.40;1.70;;;19.70;99.90;;;;;;5080965;28;20032;-78
2023/08/12 12:36:19;;;;;;;4.72;1.70;;;19.60;99.90;;;;;;5066485;28;20029;-79
2023/08/12 12:38:45;;;;;;;5.47;1.80;;;19.60;99.90;;;;;;5065387;28;20270;-79